TimeCST,TemperatureF,Dew PointF,Humidity,Sea Level PressureIn,VisibilityMPH,Wind Direction,Wind SpeedMPH,Gust SpeedMPH,PrecipitationIn,Events,Conditions,WindDirDegrees,DateUTC
12:15 AM,46.4,32.0,57,30.11,10.0,North,12.7,20.7,N/A,,Clear,350,2013-02-19 06:15:00
12:35 AM,44.6,32.0,61,30.11,10.0,North,13.8,19.6,N/A,,Clear,350,2013-02-19 06:35:00
12:55 AM,44.6,30.2,57,30.11,10.0,North,13.8,18.4,N/A,,Clear,350,2013-02-19 06:55:00
1:15 AM,44.6,30.2,57,30.12,10.0,North,10.4,-,N/A,,Clear,360,2013-02-19 07:15:00
1:35 AM,42.8,30.2,61,30.12,10.0,North,17.3,24.2,N/A,,Clear,350,2013-02-19 07:35:00
1:55 AM,42.8,28.4,57,30.14,10.0,North,15.0,21.9,N/A,,Clear,360,2013-02-19 07:55:00
2:15 AM,42.8,26.6,53,30.15,10.0,North,9.2,-,N/A,,Clear,360,2013-02-19 08:15:00
2:35 AM,41.0,26.6,57,30.15,10.0,North,6.9,-,N/A,,Clear,360,2013-02-19 08:35:00
2:55 AM,39.2,26.6,61,30.15,10.0,North,10.4,-,N/A,,Clear,10,2013-02-19 08:55:00
3:15 AM,39.2,26.6,61,30.16,10.0,North,11.5,-,N/A,,Clear,360,2013-02-19 09:15:00
3:35 AM,37.4,24.8,60,30.17,10.0,North,9.2,-,N/A,,Clear,350,2013-02-19 09:35:00
3:55 AM,37.4,24.8,60,30.16,10.0,North,6.9,-,N/A,,Clear,360,2013-02-19 09:55:00
4:15 AM,35.6,24.8,65,30.18,10.0,NNW,5.8,-,N/A,,Clear,340,2013-02-19 10:15:00
4:35 AM,35.6,23.0,60,30.18,10.0,North,5.8,-,N/A,,Clear,350,2013-02-19 10:35:00
4:55 AM,35.6,23.0,60,30.19,10.0,North,4.6,-,N/A,,Clear,360,2013-02-19 10:55:00
5:15 AM,35.6,23.0,60,30.20,10.0,NNW,4.6,-,N/A,,Clear,330,2013-02-19 11:15:00
5:35 AM,33.8,21.2,60,30.20,10.0,North,3.5,-,N/A,,Clear,360,2013-02-19 11:35:00
5:55 AM,33.8,21.2,60,30.21,10.0,North,4.6,-,N/A,,Clear,360,2013-02-19 11:55:00
6:15 AM,33.8,23.0,65,30.21,10.0,NNE,6.9,-,N/A,,Clear,20,2013-02-19 12:15:00
6:35 AM,33.8,21.2,60,30.22,10.0,NNE,6.9,-,N/A,,Clear,20,2013-02-19 12:35:00
6:55 AM,33.8,21.2,60,30.22,10.0,NNE,6.9,-,N/A,,Clear,30,2013-02-19 12:55:00
7:15 AM,33.8,21.2,60,30.23,10.0,NNE,5.8,-,N/A,,Clear,30,2013-02-19 13:15:00
7:35 AM,33.8,21.2,60,30.24,10.0,NNE,3.5,-,N/A,,Clear,30,2013-02-19 13:35:00
7:55 AM,33.8,23.0,65,30.25,7.0,NNE,4.6,-,N/A,,Clear,30,2013-02-19 13:55:00
8:15 AM,37.4,24.8,60,30.27,10.0,NE,5.8,-,N/A,,Clear,40,2013-02-19 14:15:00
8:35 AM,41.0,23.0,49,30.28,10.0,NE,6.9,-,N/A,,Clear,40,2013-02-19 14:35:00
8:55 AM,42.8,23.0,46,30.29,10.0,NE,5.8,-,N/A,,Clear,40,2013-02-19 14:55:00
9:15 AM,44.6,23.0,43,30.30,10.0,NNE,5.8,-,N/A,,Clear,20,2013-02-19 15:15:00
9:35 AM,46.4,23.0,40,30.31,10.0,NNE,4.6,-,N/A,,Clear,20,2013-02-19 15:35:00
9:55 AM,48.2,21.2,34,30.32,10.0,NNE,3.5,-,N/A,,Clear,20,2013-02-19 15:55:00
10:15 AM,51.8,21.2,30,30.32,10.0,ENE,6.9,-,N/A,,Clear,60,2013-02-19 16:15:00
10:35 AM,51.8,21.2,30,30.32,10.0,North,3.5,-,N/A,,Clear,360,2013-02-19 16:35:00
10:55 AM,53.6,19.4,26,30.33,10.0,Calm,Calm,-,N/A,,Clear,0,2013-02-19 16:55:00
11:15 AM,53.6,19.4,26,30.33,10.0,Calm,Calm,-,N/A,,Clear,0,2013-02-19 17:15:00
11:35 AM,55.4,19.4,25,30.33,10.0,Calm,Calm,-,N/A,,Clear,0,2013-02-19 17:35:00
12:15 PM,59.0,19.4,22,30.31,10.0,NE,5.8,-,N/A,,Clear,40,2013-02-19 18:15:00
12:35 PM,59.0,19.4,22,30.32,10.0,North,4.6,-,N/A,,Clear,360,2013-02-19 18:35:00
12:55 PM,59.0,21.2,23,30.31,10.0,WNW,5.8,-,N/A,,Clear,300,2013-02-19 18:55:00
1:15 PM,60.8,21.2,22,30.30,10.0,NW,3.5,-,N/A,,Clear,310,2013-02-19 19:15:00
1:35 PM,60.8,19.4,20,30.29,10.0,NNW,8.1,-,N/A,,Clear,340,2013-02-19 19:35:00
1:55 PM,60.8,19.4,20,30.27,10.0,NE,3.5,-,N/A,,Clear,40,2013-02-19 19:55:00
2:15 PM,62.6,19.4,19,30.26,10.0,North,6.9,-,N/A,,Clear,360,2013-02-19 20:15:00
2:35 PM,60.8,19.4,20,30.25,10.0,NNE,5.8,-,N/A,,Clear,20,2013-02-19 20:35:00
2:55 PM,62.6,19.4,19,30.24,10.0,NNW,6.9,-,N/A,,Clear,340,2013-02-19 20:55:00
3:15 PM,62.6,17.6,18,30.25,10.0,NNE,6.9,-,N/A,,Clear,20,2013-02-19 21:15:00
3:35 PM,62.6,17.6,18,30.24,10.0,NW,6.9,-,N/A,,Clear,310,2013-02-19 21:35:00
3:55 PM,60.8,17.6,19,30.23,10.0,NE,4.6,-,N/A,,Clear,40,2013-02-19 21:55:00
4:15 PM,60.8,15.8,17,30.23,10.0,North,8.1,-,N/A,,Clear,10,2013-02-19 22:15:00
4:35 PM,60.8,17.6,19,30.23,10.0,North,5.8,-,N/A,,Clear,360,2013-02-19 22:35:00
4:55 PM,59.0,15.8,19,30.22,10.0,NNE,9.2,-,N/A,,Clear,20,2013-02-19 22:55:00
5:15 PM,59.0,17.6,20,30.22,10.0,North,4.6,-,N/A,,Clear,10,2013-02-19 23:15:00
5:35 PM,57.2,17.6,21,30.21,10.0,NE,9.2,-,N/A,,Clear,40,2013-02-19 23:35:00
6:35 PM,50.0,19.4,30,30.23,10.0,NE,5.8,-,N/A,,Clear,40,2013-02-20 00:35:00
6:55 PM,46.4,19.4,34,30.23,10.0,NE,5.8,-,N/A,,Clear,50,2013-02-20 00:55:00
7:15 PM,46.4,19.4,34,30.23,10.0,NE,4.6,-,N/A,,Clear,50,2013-02-20 01:15:00
7:55 PM,44.6,21.2,39,30.24,10.0,ENE,5.8,-,N/A,,Clear,60,2013-02-20 01:55:00
8:15 PM,44.6,21.2,39,30.24,10.0,ENE,8.1,-,N/A,,Clear,60,2013-02-20 02:15:00
8:35 PM,44.6,21.2,39,30.24,10.0,ENE,6.9,-,N/A,,Clear,60,2013-02-20 02:35:00
8:55 PM,42.8,21.2,42,30.24,10.0,ENE,6.9,-,N/A,,Clear,70,2013-02-20 02:55:00
9:15 PM,42.8,21.2,42,30.24,10.0,East,8.1,-,N/A,,Clear,80,2013-02-20 03:15:00
9:35 PM,42.8,21.2,42,30.25,10.0,East,9.2,-,N/A,,Clear,80,2013-02-20 03:35:00
9:55 PM,42.8,21.2,42,30.25,10.0,East,8.1,-,N/A,,Clear,80,2013-02-20 03:55:00
10:15 PM,42.8,21.2,42,30.25,10.0,East,8.1,-,N/A,,Clear,80,2013-02-20 04:15:00
10:35 PM,42.8,21.2,42,30.24,10.0,East,8.1,-,N/A,,Clear,80,2013-02-20 04:35:00
10:55 PM,42.8,21.2,42,30.24,10.0,East,9.2,-,N/A,,Clear,80,2013-02-20 04:55:00
11:15 PM,42.8,23.0,46,30.24,10.0,East,9.2,-,N/A,,Clear,90,2013-02-20 05:15:00
11:35 PM,42.8,23.0,46,30.23,10.0,East,9.2,-,N/A,,Clear,90,2013-02-20 05:35:00
11:55 PM,41.0,23.0,49,30.24,10.0,East,5.8,-,N/A,,Clear,90,2013-02-20 05:55:00